x

Smith Island, Wa (sisw1) Weather Station

7:00 - Sat 20th Dec 2014 All times are PST. -8 hours from GMT.

  • Wind
    22mph, 24mph gusts
  • Air Temp 49°f
  • Sea Pressure 994.8mb
  • Smith Island, Wa
  • Smith Island, Wa

More Historic Weather Station data

Upgrade to MSW Pro to gain access to the past 30 days of data for over 8000 Wavebouys and Weather Stations around the globe.

Join Pro

Comparision Forecast

View Surf forecast
   
sam. 12/20 7:00 22 24 mph 994.8mb 49f
6:00 30 34 mph 994.6mb 49f
5:00 38 43 mph 993.8mb 50f
4:00 33 37 mph 994.3mb 49f
3:00 33 39 mph 995.8mb 49f
2:00 32 36 mph 996.4mb 49f
1:00 28 31 mph 997.2mb 49f
12:00 31 37 mph 998.4mb 49f
11:00 34 38 mph 999.7mb 48f
10:00 28 31 mph 1000.8mb 48f
9:00 31 34 mph 1000.6mb 47f
8:00 40 48 mph 1000.7mb 48f
7:00 41 45 mph 1001mb 48f
6:00 37 43 mph 1001.9mb 48f
5:00 36 40 mph 1002.6mb 48f
4:00 32 36 mph 1004.1mb 47f
3:00 40 47 mph 1005.1mb 47f
2:00 40 46 mph 1006.1mb 47f
1:00 37 41 mph 1007.4mb 49f
12:00 28 32 mph 1008.7mb 49f
ven. 12/19 11:00 28 31 mph 1009.4mb 49f
10:00 33 39 mph 1009.1mb 49f
9:00 41 44 mph 1009.5mb 48f
8:00 33 38 mph 1010.8mb 49f
7:00 33 39 mph 1011.4mb 48f
6:00 29 32 mph 1012.2mb 49f
5:00 28 30 mph 1011.9mb 48f
4:00 25 28 mph 1012.2mb 48f
3:00 20 21 mph 1012.1mb 49f
2:00 22 25 mph 1012mb 49f
1:00 20 22 mph 1012.1mb 50f
12:00 15 16 mph 1012.2mb 48f
11:00 17 18 mph 1012.4mb 47f
10:00 14 16 mph 1011.8mb 48f
9:00 6 7 mph 1011mb 46f
8:00 5 6 mph 1010.1mb 46f
7:00 15 17 mph 1009.3mb 47f
6:00 14 16 mph 1008.8mb 48f
5:00 10 11 mph 1008.1mb 48f
4:00 20 21 mph 1007.7mb 48f
3:00 17 20 mph 1007.4mb 48f
2:00 22 24 mph 1007mb 49f
1:00 22 24 mph 1006.1mb 49f
12:00 22 24 mph 1006mb 49f
jeu. 12/18 11:00 20 22 mph 1005.7mb 49f
10:00 40 46 mph 1003.8mb 50f
9:00 33 36 mph 1003.2mb 49f
8:00 36 38 mph 1003.9mb 49f
7:00 41 46 mph 1003.8mb 50f
6:00 34 38 mph 1004.6mb 50f
5:00 34 40 mph 1005mb 49f
4:00 40 47 mph 1005.2mb 50f
3:00 32 37 mph 1006.4mb 49f
2:00 29 32 mph 1007.4mb 49f
1:00 29 31 mph 1008.1mb 49f
12:00 24 26 mph 1009.3mb 48f
11:00 30 32 mph 1010.7mb 49f
10:00 25 29 mph 1011.4mb 48f
9:00 21 22 mph 1011.7mb 47f
8:00 18 22 mph 1011.8mb 47f
7:00 10 11 mph 1012.6mb 47f
6:00 15 16 mph 1012.7mb 46f
5:00 16 17 mph 1012.7mb 46f
4:00 14 16 mph 1012.7mb 46f
3:00 11 13 mph 1013mb 46f
2:00 13 14 mph 1012.7mb 46f
1:00 11 14 mph 1012.5mb 46f
12:00 8 9 mph 1012.6mb 45f
mer. 12/17 11:00 9 10 mph 1012.4mb 46f
10:00 8 9 mph 1012.4mb 46f
9:00 9 10 mph 1012.4mb 46f
8:00 6 7 mph 1012.3mb 46f
7:00 7 8 mph 1012.1mb 46f
6:00 8 9 mph 1011.8mb 47f
5:00 7 8 mph 1011.3mb 47f
4:00 11 13 mph 1010.7mb 47f
3:00 10 13 mph 1010.3mb 48f
2:00 11 13 mph 1010.3mb 48f
1:00 10 11 mph 1010.2mb 48f
12:00 10 11 mph 1010.3mb 47f
11:00 14
mph
1010.6mb 47f
10:00 14 16 mph 1010.2mb 47f
9:00 10 11 mph 1009.7mb 46f
8:00 13 15 mph 1009.2mb 46f
7:00 17 18 mph 1009mb 46f
6:00 18 21 mph 1008.9mb 46f
5:00 15 16 mph 1009mb 47f